sensor_id;sensor_type;location;lat;lon;timestamp;P1;durP1;ratioP1;P2;durP2;ratioP2
23406;SDS011;11876;53.438;18.942;2022-12-18T00:00:12;59.65;;;32.22;;
23406;SDS011;11876;53.438;18.942;2022-12-18T00:03:15;57.83;;;30.00;;
23406;SDS011;11876;53.438;18.942;2022-12-18T00:06:18;54.80;;;27.27;;
23406;SDS011;11876;53.438;18.942;2022-12-18T00:09:21;57.10;;;27.55;;
23406;SDS011;11876;53.438;18.942;2022-12-18T00:12:25;58.90;;;26.85;;
23406;SDS011;11876;53.438;18.942;2022-12-18T00:15:30;51.13;;;26.75;;
23406;SDS011;11876;53.438;18.942;2022-12-18T00:18:36;56.83;;;27.17;;
23406;SDS011;11876;53.438;18.942;2022-12-18T00:21:39;41.83;;;19.80;;
23406;SDS011;11876;53.438;18.942;2022-12-18T00:24:42;62.65;;;31.02;;
23406;SDS011;11876;53.438;18.942;2022-12-18T00:27:45;70.55;;;32.58;;
23406;SDS011;11876;53.438;18.942;2022-12-18T00:30:48;76.18;;;36.45;;
23406;SDS011;11876;53.438;18.942;2022-12-18T00:33:55;67.85;;;31.85;;
23406;SDS011;11876;53.438;18.942;2022-12-18T00:36:59;54.58;;;27.15;;
23406;SDS011;11876;53.438;18.942;2022-12-18T00:40:01;61.95;;;29.83;;
23406;SDS011;11876;53.438;18.942;2022-12-18T00:43:04;64.32;;;29.90;;
23406;SDS011;11876;53.438;18.942;2022-12-18T00:46:09;64.43;;;30.75;;
23406;SDS011;11876;53.438;18.942;2022-12-18T00:49:12;62.97;;;30.95;;
23406;SDS011;11876;53.438;18.942;2022-12-18T00:52:14;60.63;;;30.48;;
23406;SDS011;11876;53.438;18.942;2022-12-18T00:55:16;68.07;;;30.15;;
23406;SDS011;11876;53.438;18.942;2022-12-18T00:58:20;66.05;;;31.55;;
23406;SDS011;11876;53.438;18.942;2022-12-18T01:01:23;67.10;;;32.08;;
23406;SDS011;11876;53.438;18.942;2022-12-18T01:04:25;72.40;;;32.55;;
23406;SDS011;11876;53.438;18.942;2022-12-18T01:07:28;54.72;;;26.35;;
23406;SDS011;11876;53.438;18.942;2022-12-18T01:10:30;58.67;;;25.95;;
23406;SDS011;11876;53.438;18.942;2022-12-18T01:13:34;69.32;;;30.60;;
23406;SDS011;11876;53.438;18.942;2022-12-18T01:16:37;65.07;;;31.17;;
23406;SDS011;11876;53.438;18.942;2022-12-18T01:19:39;63.70;;;30.42;;
23406;SDS011;11876;53.438;18.942;2022-12-18T01:22:44;69.25;;;31.77;;
23406;SDS011;11876;53.438;18.942;2022-12-18T01:25:46;64.03;;;30.60;;
23406;SDS011;11876;53.438;18.942;2022-12-18T01:28:48;55.97;;;26.10;;
23406;SDS011;11876;53.438;18.942;2022-12-18T01:31:51;50.03;;;23.83;;
23406;SDS011;11876;53.438;18.942;2022-12-18T01:34:56;57.13;;;27.35;;
23406;SDS011;11876;53.438;18.942;2022-12-18T01:38:01;59.97;;;28.58;;
23406;SDS011;11876;53.438;18.942;2022-12-18T01:41:03;62.17;;;27.98;;
23406;SDS011;11876;53.438;18.942;2022-12-18T01:44:46;42.13;;;22.63;;
23406;SDS011;11876;53.438;18.942;2022-12-18T01:47:47;56.33;;;27.02;;
23406;SDS011;11876;53.438;18.942;2022-12-18T01:50:52;50.38;;;24.50;;
23406;SDS011;11876;53.438;18.942;2022-12-18T01:53:54;54.88;;;27.75;;
23406;SDS011;11876;53.438;18.942;2022-12-18T01:56:57;65.17;;;31.27;;
23406;SDS011;11876;53.438;18.942;2022-12-18T02:00:00;62.00;;;31.43;;
23406;SDS011;11876;53.438;18.942;2022-12-18T02:03:13;77.65;;;35.63;;
23406;SDS011;11876;53.438;18.942;2022-12-18T02:06:16;67.17;;;31.03;;
23406;SDS011;11876;53.438;18.942;2022-12-18T02:09:31;63.70;;;31.02;;
23406;SDS011;11876;53.438;18.942;2022-12-18T02:12:41;64.50;;;29.60;;
23406;SDS011;11876;53.438;18.942;2022-12-18T02:15:49;54.90;;;28.20;;
23406;SDS011;11876;53.438;18.942;2022-12-18T02:18:57;60.33;;;29.70;;
23406;SDS011;11876;53.438;18.942;2022-12-18T02:28:41;58.90;;;28.30;;
23406;SDS011;11876;53.438;18.942;2022-12-18T02:31:48;56.80;;;28.73;;
23406;SDS011;11876;53.438;18.942;2022-12-18T02:34:54;55.28;;;27.73;;
23406;SDS011;11876;53.438;18.942;2022-12-18T02:37:59;55.40;;;27.70;;
23406;SDS011;11876;53.438;18.942;2022-12-18T02:41:04;56.70;;;27.70;;
23406;SDS011;11876;53.438;18.942;2022-12-18T02:44:11;63.80;;;31.40;;
23406;SDS011;11876;53.438;18.942;2022-12-18T02:47:17;61.27;;;28.67;;
23406;SDS011;11876;53.438;18.942;2022-12-18T02:53:46;55.60;;;27.73;;
23406;SDS011;11876;53.438;18.942;2022-12-18T02:56:54;65.03;;;31.20;;
23406;SDS011;11876;53.438;18.942;2022-12-18T02:59:58;61.90;;;33.25;;
23406;SDS011;11876;53.438;18.942;2022-12-18T03:03:06;62.07;;;30.20;;
23406;SDS011;11876;53.438;18.942;2022-12-18T03:06:19;62.17;;;28.90;;
23406;SDS011;11876;53.438;18.942;2022-12-18T03:12:35;65.00;;;29.48;;
23406;SDS011;11876;53.438;18.942;2022-12-18T03:15:43;57.90;;;28.97;;
23406;SDS011;11876;53.438;18.942;2022-12-18T03:18:49;58.83;;;29.50;;
23406;SDS011;11876;53.438;18.942;2022-12-18T03:21:55;61.63;;;30.83;;
23406;SDS011;11876;53.438;18.942;2022-12-18T03:25:00;62.57;;;30.43;;
23406;SDS011;11876;53.438;18.942;2022-12-18T03:28:06;65.07;;;32.80;;
23406;SDS011;11876;53.438;18.942;2022-12-18T03:31:13;66.03;;;32.03;;
23406;SDS011;11876;53.438;18.942;2022-12-18T03:34:20;61.93;;;29.40;;
23406;SDS011;11876;53.438;18.942;2022-12-18T03:37:25;62.73;;;30.40;;
23406;SDS011;11876;53.438;18.942;2022-12-18T03:40:35;61.37;;;30.93;;
23406;SDS011;11876;53.438;18.942;2022-12-18T03:43:50;62.67;;;29.88;;
23406;SDS011;11876;53.438;18.942;2022-12-18T03:53:38;55.55;;;29.02;;
23406;SDS011;11876;53.438;18.942;2022-12-18T03:56:54;59.43;;;29.47;;
23406;SDS011;11876;53.438;18.942;2022-12-18T04:00:07;57.27;;;31.50;;
23406;SDS011;11876;53.438;18.942;2022-12-18T04:03:14;56.43;;;26.07;;
23406;SDS011;11876;53.438;18.942;2022-12-18T04:06:21;52.83;;;26.87;;
23406;SDS011;11876;53.438;18.942;2022-12-18T04:09:25;52.77;;;26.00;;
23406;SDS011;11876;53.438;18.942;2022-12-18T04:12:28;40.75;;;21.33;;
23406;SDS011;11876;53.438;18.942;2022-12-18T04:15:32;58.10;;;30.08;;
23406;SDS011;11876;53.438;18.942;2022-12-18T04:18:37;62.22;;;31.75;;
23406;SDS011;11876;53.438;18.942;2022-12-18T04:21:39;60.97;;;28.80;;
23406;SDS011;11876;53.438;18.942;2022-12-18T04:24:44;103.83;;;44.77;;
23406;SDS011;11876;53.438;18.942;2022-12-18T04:27:54;71.57;;;35.10;;
23406;SDS011;11876;53.438;18.942;2022-12-18T04:30:57;66.53;;;31.30;;
23406;SDS011;11876;53.438;18.942;2022-12-18T04:33:59;64.45;;;31.95;;
23406;SDS011;11876;53.438;18.942;2022-12-18T04:37:02;68.32;;;32.92;;
23406;SDS011;11876;53.438;18.942;2022-12-18T04:40:05;47.83;;;25.40;;
23406;SDS011;11876;53.438;18.942;2022-12-18T04:43:14;62.63;;;32.47;;
23406;SDS011;11876;53.438;18.942;2022-12-18T04:46:16;47.37;;;24.53;;
23406;SDS011;11876;53.438;18.942;2022-12-18T04:49:19;59.28;;;32.25;;
23406;SDS011;11876;53.438;18.942;2022-12-18T04:52:21;51.17;;;26.60;;
23406;SDS011;11876;53.438;18.942;2022-12-18T04:55:26;51.00;;;26.13;;
23406;SDS011;11876;53.438;18.942;2022-12-18T04:58:29;52.83;;;26.23;;
23406;SDS011;11876;53.438;18.942;2022-12-18T05:01:31;51.17;;;25.17;;
23406;SDS011;11876;53.438;18.942;2022-12-18T05:04:35;51.87;;;27.43;;
23406;SDS011;11876;53.438;18.942;2022-12-18T05:07:37;50.83;;;24.57;;
23406;SDS011;11876;53.438;18.942;2022-12-18T05:10:40;54.03;;;24.52;;
23406;SDS011;11876;53.438;18.942;2022-12-18T05:13:43;47.30;;;24.43;;
23406;SDS011;11876;53.438;18.942;2022-12-18T05:16:46;44.17;;;23.03;;
23406;SDS011;11876;53.438;18.942;2022-12-18T05:19:48;42.47;;;24.08;;
23406;SDS011;11876;53.438;18.942;2022-12-18T05:22:51;48.83;;;26.70;;
23406;SDS011;11876;53.438;18.942;2022-12-18T05:28:55;52.47;;;26.27;;
23406;SDS011;11876;53.438;18.942;2022-12-18T05:31:58;49.53;;;25.93;;
23406;SDS011;11876;53.438;18.942;2022-12-18T05:35:00;44.50;;;22.70;;
23406;SDS011;11876;53.438;18.942;2022-12-18T05:38:03;51.67;;;24.87;;
23406;SDS011;11876;53.438;18.942;2022-12-18T05:41:05;52.83;;;25.25;;
23406;SDS011;11876;53.438;18.942;2022-12-18T05:44:08;45.20;;;19.05;;
23406;SDS011;11876;53.438;18.942;2022-12-18T05:47:10;50.13;;;25.00;;
23406;SDS011;11876;53.438;18.942;2022-12-18T05:50:13;50.87;;;25.47;;
23406;SDS011;11876;53.438;18.942;2022-12-18T05:53:16;50.60;;;24.90;;
23406;SDS011;11876;53.438;18.942;2022-12-18T05:56:21;53.53;;;26.63;;
23406;SDS011;11876;53.438;18.942;2022-12-18T05:59:24;48.53;;;23.90;;
23406;SDS011;11876;53.438;18.942;2022-12-18T06:02:26;49.70;;;26.80;;
23406;SDS011;11876;53.438;18.942;2022-12-18T06:05:29;47.60;;;23.65;;
23406;SDS011;11876;53.438;18.942;2022-12-18T06:08:37;52.27;;;29.07;;
23406;SDS011;11876;53.438;18.942;2022-12-18T06:11:46;50.90;;;27.17;;
23406;SDS011;11876;53.438;18.942;2022-12-18T06:14:48;37.40;;;19.50;;
23406;SDS011;11876;53.438;18.942;2022-12-18T06:17:51;62.23;;;28.77;;
23406;SDS011;11876;53.438;18.942;2022-12-18T06:20:54;49.70;;;23.83;;
23406;SDS011;11876;53.438;18.942;2022-12-18T06:23:57;51.10;;;25.43;;
23406;SDS011;11876;53.438;18.942;2022-12-18T06:27:00;51.75;;;27.00;;
23406;SDS011;11876;53.438;18.942;2022-12-18T06:30:03;45.07;;;20.30;;
23406;SDS011;11876;53.438;18.942;2022-12-18T06:33:06;47.40;;;23.77;;
23406;SDS011;11876;53.438;18.942;2022-12-18T06:36:09;59.57;;;26.70;;
23406;SDS011;11876;53.438;18.942;2022-12-18T06:39:13;58.03;;;28.83;;
23406;SDS011;11876;53.438;18.942;2022-12-18T06:42:15;53.77;;;25.87;;
23406;SDS011;11876;53.438;18.942;2022-12-18T06:45:17;66.30;;;30.87;;
23406;SDS011;11876;53.438;18.942;2022-12-18T06:48:19;81.93;;;35.37;;
23406;SDS011;11876;53.438;18.942;2022-12-18T06:51:23;154.70;;;62.70;;
23406;SDS011;11876;53.438;18.942;2022-12-18T06:54:25;95.80;;;42.63;;
23406;SDS011;11876;53.438;18.942;2022-12-18T06:57:28;69.73;;;34.27;;
23406;SDS011;11876;53.438;18.942;2022-12-18T07:00:30;49.17;;;24.52;;
23406;SDS011;11876;53.438;18.942;2022-12-18T07:03:33;77.30;;;37.93;;
23406;SDS011;11876;53.438;18.942;2022-12-18T07:06:35;52.20;;;27.08;;
23406;SDS011;11876;53.438;18.942;2022-12-18T07:09:38;75.33;;;35.77;;
23406;SDS011;11876;53.438;18.942;2022-12-18T07:12:40;87.73;;;43.33;;
23406;SDS011;11876;53.438;18.942;2022-12-18T07:15:43;85.97;;;41.15;;
23406;SDS011;11876;53.438;18.942;2022-12-18T07:18:46;82.30;;;37.90;;
23406;SDS011;11876;53.438;18.942;2022-12-18T07:21:49;81.57;;;36.55;;
23406;SDS011;11876;53.438;18.942;2022-12-18T07:24:52;93.80;;;42.13;;
23406;SDS011;11876;53.438;18.942;2022-12-18T07:27:54;87.47;;;46.10;;
23406;SDS011;11876;53.438;18.942;2022-12-18T07:30:57;81.80;;;37.97;;
23406;SDS011;11876;53.438;18.942;2022-12-18T07:34:00;79.90;;;35.28;;
23406;SDS011;11876;53.438;18.942;2022-12-18T07:37:02;96.90;;;42.57;;
23406;SDS011;11876;53.438;18.942;2022-12-18T07:40:05;101.68;;;45.75;;
23406;SDS011;11876;53.438;18.942;2022-12-18T07:43:07;79.72;;;37.65;;
23406;SDS011;11876;53.438;18.942;2022-12-18T07:46:10;80.05;;;38.58;;
23406;SDS011;11876;53.438;18.942;2022-12-18T07:49:15;75.32;;;35.33;;
23406;SDS011;11876;53.438;18.942;2022-12-18T07:52:17;74.78;;;34.58;;
23406;SDS011;11876;53.438;18.942;2022-12-18T07:55:26;91.07;;;38.58;;
23406;SDS011;11876;53.438;18.942;2022-12-18T07:58:30;169.23;;;68.03;;
23406;SDS011;11876;53.438;18.942;2022-12-18T08:01:33;179.73;;;77.55;;
23406;SDS011;11876;53.438;18.942;2022-12-18T08:04:36;81.57;;;35.63;;
23406;SDS011;11876;53.438;18.942;2022-12-18T08:07:39;63.60;;;29.60;;
23406;SDS011;11876;53.438;18.942;2022-12-18T08:10:41;88.20;;;40.72;;
23406;SDS011;11876;53.438;18.942;2022-12-18T08:13:43;124.78;;;70.22;;
23406;SDS011;11876;53.438;18.942;2022-12-18T08:16:46;113.07;;;61.30;;
23406;SDS011;11876;53.438;18.942;2022-12-18T08:19:48;91.18;;;41.53;;
23406;SDS011;11876;53.438;18.942;2022-12-18T08:22:50;86.97;;;37.10;;
23406;SDS011;11876;53.438;18.942;2022-12-18T08:25:53;81.23;;;34.70;;
23406;SDS011;11876;53.438;18.942;2022-12-18T08:28:55;74.23;;;34.23;;
23406;SDS011;11876;53.438;18.942;2022-12-18T08:31:58;86.20;;;35.20;;
23406;SDS011;11876;53.438;18.942;2022-12-18T08:35:01;80.85;;;35.22;;
23406;SDS011;11876;53.438;18.942;2022-12-18T08:38:03;82.93;;;37.10;;
23406;SDS011;11876;53.438;18.942;2022-12-18T08:41:07;88.63;;;38.97;;
23406;SDS011;11876;53.438;18.942;2022-12-18T08:44:11;324.50;;;125.38;;
23406;SDS011;11876;53.438;18.942;2022-12-18T08:47:32;93.90;;;45.03;;
23406;SDS011;11876;53.438;18.942;2022-12-18T08:50:34;79.43;;;35.63;;
23406;SDS011;11876;53.438;18.942;2022-12-18T08:53:37;83.68;;;37.67;;
23406;SDS011;11876;53.438;18.942;2022-12-18T08:56:40;82.15;;;37.70;;
23406;SDS011;11876;53.438;18.942;2022-12-18T08:59:42;78.10;;;37.33;;
23406;SDS011;11876;53.438;18.942;2022-12-18T09:02:45;83.13;;;35.65;;
23406;SDS011;11876;53.438;18.942;2022-12-18T09:05:47;82.00;;;36.78;;
23406;SDS011;11876;53.438;18.942;2022-12-18T09:08:50;75.70;;;34.92;;
23406;SDS011;11876;53.438;18.942;2022-12-18T09:11:52;78.97;;;34.53;;
23406;SDS011;11876;53.438;18.942;2022-12-18T09:14:55;75.57;;;35.72;;
23406;SDS011;11876;53.438;18.942;2022-12-18T09:17:58;77.80;;;33.67;;
23406;SDS011;11876;53.438;18.942;2022-12-18T09:21:06;75.38;;;35.47;;
23406;SDS011;11876;53.438;18.942;2022-12-18T09:24:11;66.43;;;31.38;;
23406;SDS011;11876;53.438;18.942;2022-12-18T09:27:14;84.38;;;38.75;;
23406;SDS011;11876;53.438;18.942;2022-12-18T09:30:17;170.85;;;72.93;;
23406;SDS011;11876;53.438;18.942;2022-12-18T09:33:19;79.15;;;37.63;;
23406;SDS011;11876;53.438;18.942;2022-12-18T09:36:21;82.45;;;37.53;;
23406;SDS011;11876;53.438;18.942;2022-12-18T09:39:24;77.35;;;35.10;;
23406;SDS011;11876;53.438;18.942;2022-12-18T09:42:26;79.32;;;37.40;;
23406;SDS011;11876;53.438;18.942;2022-12-18T09:45:30;75.03;;;34.47;;
23406;SDS011;11876;53.438;18.942;2022-12-18T09:48:42;124.65;;;49.58;;
23406;SDS011;11876;53.438;18.942;2022-12-18T09:51:49;92.97;;;43.03;;
23406;SDS011;11876;53.438;18.942;2022-12-18T09:54:56;78.25;;;35.53;;
23406;SDS011;11876;53.438;18.942;2022-12-18T09:58:05;143.43;;;62.15;;
23406;SDS011;11876;53.438;18.942;2022-12-18T10:01:10;94.15;;;44.63;;
23406;SDS011;11876;53.438;18.942;2022-12-18T10:04:14;95.43;;;44.83;;
23406;SDS011;11876;53.438;18.942;2022-12-18T10:07:21;126.15;;;59.25;;
23406;SDS011;11876;53.438;18.942;2022-12-18T10:17:42;83.80;;;40.22;;
23406;SDS011;11876;53.438;18.942;2022-12-18T10:20:51;87.57;;;41.75;;
23406;SDS011;11876;53.438;18.942;2022-12-18T10:27:21;82.60;;;38.67;;
23406;SDS011;11876;53.438;18.942;2022-12-18T10:30:25;95.57;;;46.67;;
23406;SDS011;11876;53.438;18.942;2022-12-18T10:33:29;89.82;;;43.83;;
23406;SDS011;11876;53.438;18.942;2022-12-18T10:36:33;89.15;;;43.35;;
23406;SDS011;11876;53.438;18.942;2022-12-18T10:39:35;97.30;;;46.38;;
23406;SDS011;11876;53.438;18.942;2022-12-18T10:42:38;100.30;;;45.90;;
23406;SDS011;11876;53.438;18.942;2022-12-18T10:45:41;112.05;;;51.63;;
23406;SDS011;11876;53.438;18.942;2022-12-18T10:51:49;98.30;;;45.75;;
23406;SDS011;11876;53.438;18.942;2022-12-18T10:54:54;80.40;;;38.45;;
23406;SDS011;11876;53.438;18.942;2022-12-18T11:01:27;95.28;;;43.67;;
23406;SDS011;11876;53.438;18.942;2022-12-18T11:04:31;205.75;;;89.70;;
23406;SDS011;11876;53.438;18.942;2022-12-18T11:07:46;109.65;;;48.63;;
23406;SDS011;11876;53.438;18.942;2022-12-18T11:10:51;86.20;;;40.17;;
23406;SDS011;11876;53.438;18.942;2022-12-18T11:14:05;113.63;;;50.30;;
23406;SDS011;11876;53.438;18.942;2022-12-18T11:17:18;87.70;;;39.83;;
23406;SDS011;11876;53.438;18.942;2022-12-18T11:20:31;81.45;;;35.22;;
23406;SDS011;11876;53.438;18.942;2022-12-18T11:23:36;96.72;;;43.75;;
23406;SDS011;11876;53.438;18.942;2022-12-18T11:26:39;121.95;;;53.10;;
23406;SDS011;11876;53.438;18.942;2022-12-18T11:29:44;74.68;;;31.90;;
23406;SDS011;11876;53.438;18.942;2022-12-18T11:32:48;77.40;;;34.90;;
23406;SDS011;11876;53.438;18.942;2022-12-18T11:35:56;78.60;;;34.63;;
23406;SDS011;11876;53.438;18.942;2022-12-18T11:39:02;69.85;;;31.13;;
23406;SDS011;11876;53.438;18.942;2022-12-18T11:42:17;95.63;;;40.78;;
23406;SDS011;11876;53.438;18.942;2022-12-18T11:45:26;146.20;;;56.90;;
23406;SDS011;11876;53.438;18.942;2022-12-18T12:06:05;71.85;;;34.47;;
23406;SDS011;11876;53.438;18.942;2022-12-18T12:13:31;81.60;;;33.25;;
23406;SDS011;11876;53.438;18.942;2022-12-18T12:17:00;80.85;;;35.03;;
23406;SDS011;11876;53.438;18.942;2022-12-18T12:26:43;73.07;;;36.83;;
23406;SDS011;11876;53.438;18.942;2022-12-18T12:29:58;75.20;;;37.10;;
23406;SDS011;11876;53.438;18.942;2022-12-18T12:33:24;86.18;;;42.53;;
23406;SDS011;11876;53.438;18.942;2022-12-18T12:40:25;74.45;;;35.83;;
23406;SDS011;11876;53.438;18.942;2022-12-18T12:43:49;120.78;;;52.60;;
23406;SDS011;11876;53.438;18.942;2022-12-18T12:46:53;113.43;;;43.35;;
23406;SDS011;11876;53.438;18.942;2022-12-18T12:49:58;75.03;;;34.00;;
23406;SDS011;11876;53.438;18.942;2022-12-18T12:53:05;140.85;;;58.92;;
23406;SDS011;11876;53.438;18.942;2022-12-18T12:56:14;99.15;;;41.40;;
23406;SDS011;11876;53.438;18.942;2022-12-18T12:59:23;77.70;;;33.78;;
23406;SDS011;11876;53.438;18.942;2022-12-18T13:02:51;77.18;;;35.92;;
23406;SDS011;11876;53.438;18.942;2022-12-18T13:05:59;79.93;;;36.13;;
23406;SDS011;11876;53.438;18.942;2022-12-18T13:09:05;77.93;;;36.10;;
23406;SDS011;11876;53.438;18.942;2022-12-18T13:12:10;185.32;;;75.47;;
23406;SDS011;11876;53.438;18.942;2022-12-18T13:16:04;101.85;;;43.65;;
23406;SDS011;11876;53.438;18.942;2022-12-18T13:19:19;92.93;;;41.85;;
23406;SDS011;11876;53.438;18.942;2022-12-18T13:22:31;84.68;;;36.63;;
23406;SDS011;11876;53.438;18.942;2022-12-18T13:25:39;83.97;;;39.53;;
23406;SDS011;11876;53.438;18.942;2022-12-18T13:41:36;81.60;;;36.15;;
23406;SDS011;11876;53.438;18.942;2022-12-18T13:44:39;72.03;;;33.83;;
23406;SDS011;11876;53.438;18.942;2022-12-18T13:47:42;65.38;;;29.63;;
23406;SDS011;11876;53.438;18.942;2022-12-18T13:50:49;81.05;;;34.05;;
23406;SDS011;11876;53.438;18.942;2022-12-18T13:53:57;82.72;;;37.00;;
23406;SDS011;11876;53.438;18.942;2022-12-18T13:57:02;72.72;;;34.10;;
23406;SDS011;11876;53.438;18.942;2022-12-18T14:03:32;76.65;;;33.70;;
23406;SDS011;11876;53.438;18.942;2022-12-18T14:06:34;74.53;;;35.38;;
23406;SDS011;11876;53.438;18.942;2022-12-18T14:09:39;99.77;;;50.27;;
23406;SDS011;11876;53.438;18.942;2022-12-18T14:12:49;97.13;;;43.40;;
23406;SDS011;11876;53.438;18.942;2022-12-18T14:16:03;68.97;;;30.05;;
23406;SDS011;11876;53.438;18.942;2022-12-18T14:19:16;72.63;;;32.85;;
23406;SDS011;11876;53.438;18.942;2022-12-18T14:22:20;79.97;;;34.93;;
23406;SDS011;11876;53.438;18.942;2022-12-18T14:25:30;87.53;;;34.47;;
23406;SDS011;11876;53.438;18.942;2022-12-18T14:28:42;94.13;;;37.33;;
23406;SDS011;11876;53.438;18.942;2022-12-18T14:31:45;106.53;;;41.20;;
23406;SDS011;11876;53.438;18.942;2022-12-18T14:37:51;126.90;;;45.58;;
23406;SDS011;11876;53.438;18.942;2022-12-18T14:40:57;122.28;;;44.45;;
23406;SDS011;11876;53.438;18.942;2022-12-18T14:44:05;165.27;;;63.80;;
23406;SDS011;11876;53.438;18.942;2022-12-18T14:47:13;130.82;;;47.08;;
23406;SDS011;11876;53.438;18.942;2022-12-18T14:50:16;129.30;;;48.28;;
23406;SDS011;11876;53.438;18.942;2022-12-18T14:53:23;168.18;;;65.63;;
23406;SDS011;11876;53.438;18.942;2022-12-18T14:56:37;147.50;;;54.97;;
23406;SDS011;11876;53.438;18.942;2022-12-18T14:59:46;145.18;;;54.60;;
23406;SDS011;11876;53.438;18.942;2022-12-18T15:02:50;150.20;;;56.33;;
23406;SDS011;11876;53.438;18.942;2022-12-18T15:05:55;158.65;;;59.95;;
23406;SDS011;11876;53.438;18.942;2022-12-18T15:08:59;172.13;;;63.47;;
23406;SDS011;11876;53.438;18.942;2022-12-18T15:12:03;133.57;;;52.22;;
23406;SDS011;11876;53.438;18.942;2022-12-18T15:15:43;118.78;;;43.92;;
23406;SDS011;11876;53.438;18.942;2022-12-18T15:18:41;121.50;;;52.72;;
23406;SDS011;11876;53.438;18.942;2022-12-18T15:21:44;120.57;;;48.00;;
23406;SDS011;11876;53.438;18.942;2022-12-18T15:24:46;120.32;;;49.90;;
23406;SDS011;11876;53.438;18.942;2022-12-18T15:27:49;119.55;;;48.08;;
23406;SDS011;11876;53.438;18.942;2022-12-18T15:30:58;126.00;;;53.50;;
23406;SDS011;11876;53.438;18.942;2022-12-18T15:37:12;117.10;;;47.22;;
23406;SDS011;11876;53.438;18.942;2022-12-18T15:40:15;98.95;;;41.92;;
23406;SDS011;11876;53.438;18.942;2022-12-18T15:43:21;187.50;;;80.50;;
23406;SDS011;11876;53.438;18.942;2022-12-18T15:46:36;210.20;;;93.50;;
23406;SDS011;11876;53.438;18.942;2022-12-18T15:52:43;120.78;;;51.17;;
23406;SDS011;11876;53.438;18.942;2022-12-18T15:55:46;129.10;;;51.67;;
23406;SDS011;11876;53.438;18.942;2022-12-18T15:59:11;167.43;;;69.10;;
23406;SDS011;11876;53.438;18.942;2022-12-18T16:02:18;145.15;;;57.33;;
23406;SDS011;11876;53.438;18.942;2022-12-18T16:05:22;140.98;;;58.15;;
23406;SDS011;11876;53.438;18.942;2022-12-18T16:08:25;182.35;;;84.15;;
23406;SDS011;11876;53.438;18.942;2022-12-18T16:11:28;159.73;;;64.93;;
23406;SDS011;11876;53.438;18.942;2022-12-18T16:14:42;168.68;;;69.55;;
23406;SDS011;11876;53.438;18.942;2022-12-18T16:17:45;115.43;;;48.85;;
23406;SDS011;11876;53.438;18.942;2022-12-18T16:20:49;111.68;;;44.30;;
23406;SDS011;11876;53.438;18.942;2022-12-18T16:23:54;139.02;;;57.78;;
23406;SDS011;11876;53.438;18.942;2022-12-18T16:27:00;130.30;;;53.25;;
23406;SDS011;11876;53.438;18.942;2022-12-18T16:30:03;116.43;;;46.50;;
23406;SDS011;11876;53.438;18.942;2022-12-18T16:33:06;113.53;;;51.08;;
23406;SDS011;11876;53.438;18.942;2022-12-18T16:36:08;104.10;;;42.43;;
23406;SDS011;11876;53.438;18.942;2022-12-18T16:39:11;90.85;;;36.72;;
23406;SDS011;11876;53.438;18.942;2022-12-18T16:42:16;68.20;;;26.92;;
23406;SDS011;11876;53.438;18.942;2022-12-18T16:45:21;85.53;;;34.85;;
23406;SDS011;11876;53.438;18.942;2022-12-18T16:48:27;83.95;;;34.75;;
23406;SDS011;11876;53.438;18.942;2022-12-18T16:51:30;70.80;;;30.33;;
23406;SDS011;11876;53.438;18.942;2022-12-18T16:54:34;88.68;;;38.08;;
23406;SDS011;11876;53.438;18.942;2022-12-18T16:57:40;113.88;;;44.45;;
23406;SDS011;11876;53.438;18.942;2022-12-18T17:00:44;117.78;;;44.75;;
23406;SDS011;11876;53.438;18.942;2022-12-18T17:03:50;229.60;;;86.75;;
23406;SDS011;11876;53.438;18.942;2022-12-18T17:06:57;201.02;;;76.43;;
23406;SDS011;11876;53.438;18.942;2022-12-18T17:09:59;106.47;;;38.65;;
23406;SDS011;11876;53.438;18.942;2022-12-18T17:13:02;87.65;;;36.30;;
23406;SDS011;11876;53.438;18.942;2022-12-18T17:16:04;115.13;;;48.00;;
23406;SDS011;11876;53.438;18.942;2022-12-18T17:19:08;268.15;;;117.85;;
23406;SDS011;11876;53.438;18.942;2022-12-18T17:22:18;208.48;;;94.32;;
23406;SDS011;11876;53.438;18.942;2022-12-18T17:25:21;157.13;;;66.97;;
23406;SDS011;11876;53.438;18.942;2022-12-18T17:28:25;104.47;;;44.17;;
23406;SDS011;11876;53.438;18.942;2022-12-18T17:31:29;106.18;;;43.65;;
23406;SDS011;11876;53.438;18.942;2022-12-18T17:37:34;100.55;;;37.47;;
23406;SDS011;11876;53.438;18.942;2022-12-18T17:40:36;113.65;;;43.22;;
23406;SDS011;11876;53.438;18.942;2022-12-18T17:43:50;105.53;;;40.35;;
23406;SDS011;11876;53.438;18.942;2022-12-18T17:46:58;122.78;;;45.90;;
23406;SDS011;11876;53.438;18.942;2022-12-18T17:50:01;123.00;;;43.88;;
23406;SDS011;11876;53.438;18.942;2022-12-18T17:53:06;121.00;;;45.92;;
23406;SDS011;11876;53.438;18.942;2022-12-18T17:56:11;122.82;;;44.53;;
23406;SDS011;11876;53.438;18.942;2022-12-18T17:59:16;111.40;;;40.90;;
23406;SDS011;11876;53.438;18.942;2022-12-18T18:02:19;112.65;;;39.78;;
23406;SDS011;11876;53.438;18.942;2022-12-18T18:05:21;155.60;;;55.53;;
23406;SDS011;11876;53.438;18.942;2022-12-18T18:08:25;187.77;;;64.37;;
23406;SDS011;11876;53.438;18.942;2022-12-18T18:11:30;157.02;;;53.83;;
23406;SDS011;11876;53.438;18.942;2022-12-18T18:14:53;156.33;;;53.33;;
23406;SDS011;11876;53.438;18.942;2022-12-18T18:17:56;134.63;;;48.55;;
23406;SDS011;11876;53.438;18.942;2022-12-18T18:21:02;139.27;;;51.00;;
23406;SDS011;11876;53.438;18.942;2022-12-18T18:24:16;145.20;;;54.33;;
23406;SDS011;11876;53.438;18.942;2022-12-18T18:27:23;141.03;;;51.83;;
23406;SDS011;11876;53.438;18.942;2022-12-18T18:30:27;123.50;;;45.70;;
23406;SDS011;11876;53.438;18.942;2022-12-18T18:33:31;156.18;;;54.67;;
23406;SDS011;11876;53.438;18.942;2022-12-18T18:36:34;140.13;;;51.23;;
23406;SDS011;11876;53.438;18.942;2022-12-18T18:39:36;151.27;;;53.58;;
23406;SDS011;11876;53.438;18.942;2022-12-18T18:42:39;138.43;;;52.95;;
23406;SDS011;11876;53.438;18.942;2022-12-18T18:45:43;138.60;;;49.90;;
23406;SDS011;11876;53.438;18.942;2022-12-18T18:48:48;135.13;;;44.50;;
23406;SDS011;11876;53.438;18.942;2022-12-18T18:51:54;141.33;;;57.40;;
23406;SDS011;11876;53.438;18.942;2022-12-18T18:54:58;124.90;;;44.22;;
23406;SDS011;11876;53.438;18.942;2022-12-18T18:58:13;115.70;;;45.00;;
23406;SDS011;11876;53.438;18.942;2022-12-18T19:01:17;151.93;;;49.00;;
23406;SDS011;11876;53.438;18.942;2022-12-18T19:04:22;145.13;;;49.57;;
23406;SDS011;11876;53.438;18.942;2022-12-18T19:07:28;234.10;;;80.17;;
23406;SDS011;11876;53.438;18.942;2022-12-18T19:10:33;146.13;;;50.77;;
23406;SDS011;11876;53.438;18.942;2022-12-18T19:13:36;207.67;;;69.13;;
23406;SDS011;11876;53.438;18.942;2022-12-18T19:16:40;148.85;;;48.95;;
23406;SDS011;11876;53.438;18.942;2022-12-18T19:19:43;159.40;;;54.58;;
23406;SDS011;11876;53.438;18.942;2022-12-18T19:22:50;118.60;;;43.37;;
23406;SDS011;11876;53.438;18.942;2022-12-18T19:25:59;130.93;;;46.83;;